Airfield :
LOGIN :

Register | Disclaimer

   EN    FR    IT 

 










Legend :    VFR   Marginal VFR   IFR   Intensive IFR   Very Intensive IFR
Visi :
Ceiling :
>= 8 km
>= 3000ft
5 to 8 km
1000 to 3000 ft
1500m to 5 km
500 to 1000 ft
800 to 1500m
200 to 500 ft
< 800m
< 200 ft
Symbols :   Thunderstorms  Fog  Heavy snow  Heavy precipitations  Wind > 20 kt
SIGMETs :     Misc.  Thunderstorms  Icing  Turbulence  Mountain Waves  Volcanic Ashes






- Airport Elevation : 1046 ft
- IATA code : NUE


EDDN - Nuremberg

CURRENT METAR :
  • 261820Z 36006KT CAVOK 17/05 Q1033 NOSIG

EXPIRED METARs :
  • 261750Z 36007KT 340V040 CAVOK 17/05 Q1033 NOSIG
  • 261720Z 02005KT 340V070 CAVOK 18/04 Q1033 NOSIG
  • 261650Z 04007KT 350V080 CAVOK 18/04 Q1033 NOSIG
  • 261620Z 01007KT 330V040 CAVOK 18/04 Q1033 NOSIG
  • 261550Z 03004KT 340V070 CAVOK 18/04 Q1033 NOSIG

TAF TAF EDDN
Valid from the 26 at 18:00 until the 27 at 18:00 UTC


261700Z 2618/2718 VRB03KT CAVOK
BECMG 2709/2711 06005KT



MET'MAP, your aeronautical weather chart ! - Copyright ORBIFLY December 2007 - Disclaimer

ORBIFLY MET'MAP TEAM :

Programming & Development : Alexandra Zaïnal
Concept & original design : Baudouin d'Aumeries
Assistance for programming : Marc-Olivier Méhu
Technical & hardware support : Manuel Goepfert

Contact : metmap@orbifly.com




SOURCES & CREDITS :

   NOAA